Time;durP1;ratioP1;P1;durP2;ratioP2;P2;SDS_P1;SDS_P2;PMS_P1;PMS_P2;Temp;Humidity;BMP_temperature;BMP_pressure;BME280_temperature;BME280_humidity;BME280_pressure;Samples;Min_cycle;Max_cycle;Signal;HPM_P1;HPM_P2
2022/11/10 00:00:39;;;;;;;9.40;5.70;;;;;;;;;;5015237;28;20197;-80
2022/11/10 00:03:08;;;;;;;12.30;5.67;;;;;;;;;;5024655;28;20236;-79
2022/11/10 00:05:36;;;;;;;7.80;5.87;;;;;;;;;;5015561;28;20285;-80
2022/11/10 00:08:04;;;;;;;12.57;6.10;;;;;;;;;;5023117;28;20251;-80
2022/11/10 00:10:31;;;;;;;10.00;6.50;;;;;;;;;;5022297;28;20284;-80
2022/11/10 00:13:00;;;;;;;14.73;7.00;;;;;;;;;;5015178;28;20247;-80
2022/11/10 00:18:14;;;;;;;12.57;6.93;;;;;;;;;;5024800;28;20207;-80
2022/11/10 00:20:41;;;;;;;11.50;6.40;;;;;;;;;;5021736;28;20284;-80
2022/11/10 00:23:08;;;;;;;13.60;6.70;;;;;;;;;;5029877;28;20324;-80
2022/11/10 00:25:35;;;;;;;13.47;6.87;;;;;;;;;;5023215;28;20288;-80
2022/11/10 00:28:03;;;;;;;14.77;7.27;;;;;;;;;;5013978;28;20338;-80
2022/11/10 00:30:30;;;;;;;12.97;6.20;;;;;;;;;;5030278;28;20236;-81
2022/11/10 00:32:57;;;;;;;9.77;6.57;;;;;;;;;;5033014;28;20296;-80
2022/11/10 00:35:26;;;;;;;11.00;6.23;;;;;;;;;;5032772;28;20239;-80
2022/11/10 00:37:53;;;;;;;9.30;5.90;;;;;;;;;;5018242;28;20272;-80
2022/11/10 00:40:20;;;;;;;11.03;6.23;;;;;;;;;;5021378;28;20220;-81
2022/11/10 00:42:47;;;;;;;11.50;6.33;;;;;;;;;;5021589;28;20228;-80
2022/11/10 00:45:14;;;;;;;11.63;5.97;;;;;;;;;;5011259;28;20275;-79
2022/11/10 00:47:42;;;;;;;12.83;6.70;;;;;;;;;;5023768;28;20772;-79
2022/11/10 00:50:09;;;;;;;13.83;6.27;;;;;;;;;;5025981;28;20291;-79
2022/11/10 00:52:38;;;;;;;13.60;6.63;;;;;;;;;;5016009;28;20288;-80
2022/11/10 00:55:05;;;;;;;10.47;6.27;;;;;;;;;;5032194;28;20232;-79
2022/11/10 00:57:32;;;;;;;10.03;5.80;;;;;;;;;;5016690;28;20284;-80
2022/11/10 01:00:00;;;;;;;9.73;6.27;;;;;;;;;;5017337;28;20300;-80
2022/11/10 01:02:28;;;;;;;9.10;6.00;;;;;;;;;;5020162;28;20287;-81
2022/11/10 01:04:55;;;;;;;11.40;5.87;;;;;;;;;;5022047;28;20672;-80
2022/11/10 01:07:22;;;;;;;10.53;6.13;;;;;;;;;;5018181;28;20252;-79
2022/11/10 01:09:51;;;;;;;11.40;6.03;;;;;;;;;;5021672;28;20233;-78
2022/11/10 01:12:18;;;;;;;12.60;6.10;;;;;;;;;;5018425;28;20228;-81
2022/11/10 01:14:47;;;;;;;11.50;6.17;;;;;;;;;;5016348;28;20236;-80
2022/11/10 01:17:15;;;;;;;13.73;6.37;;;;;;;;;;5029410;28;20219;-80
2022/11/10 01:19:42;;;;;;;14.13;6.20;;;;;;;;;;5026371;28;20288;-80
2022/11/10 01:22:09;;;;;;;9.70;5.90;;;;;;;;;;5027284;28;20228;-80
2022/11/10 01:24:37;;;;;;;14.73;6.17;;;;;;;;;;5018781;28;20658;-80
2022/11/10 01:27:05;;;;;;;17.83;5.80;;;;;;;;;;5023775;28;20229;-80
2022/11/10 01:29:33;;;;;;;15.57;5.93;;;;;;;;;;5021073;28;20362;-80
2022/11/10 01:32:00;;;;;;;15.43;5.90;;;;;;;;;;5023969;28;20236;-80
2022/11/10 01:34:27;;;;;;;14.53;5.90;;;;;;;;;;5030313;28;20283;-80
2022/11/10 01:36:54;;;;;;;14.30;5.60;;;;;;;;;;5018434;28;20682;-80
2022/11/10 01:39:21;;;;;;;14.13;5.93;;;;;;;;;;5021174;28;20279;-80
2022/11/10 01:41:49;;;;;;;16.10;5.90;;;;;;;;;;5004134;28;20292;-81
2022/11/10 01:44:19;;;;;;;15.63;5.87;;;;;;;;;;5024784;28;20235;-80
2022/11/10 01:46:46;;;;;;;18.93;6.03;;;;;;;;;;5019139;28;20232;-80
2022/11/10 01:49:15;;;;;;;14.97;5.70;;;;;;;;;;5013377;28;20308;-80
2022/11/10 01:51:45;;;;;;;11.80;5.70;;;;;;;;;;5020743;28;20226;-81
2022/11/10 01:54:14;;;;;;;10.70;5.27;;;;;;;;;;5022109;28;20224;-81
2022/11/10 01:56:43;;;;;;;9.43;5.50;;;;;;;;;;5021550;28;20247;-81
2022/11/10 01:59:13;;;;;;;8.33;4.83;;;;;;;;;;5015676;28;20677;-80
2022/11/10 02:01:42;;;;;;;8.70;4.60;;;;;;;;;;5024344;28;20682;-81
2022/11/10 02:04:12;;;;;;;8.93;4.50;;;;;;;;;;5028320;28;20719;-80
2022/11/10 02:06:40;;;;;;;7.90;4.97;;;;;;;;;;5016629;28;20796;-80
2022/11/10 02:09:07;;;;;;;8.37;5.07;;;;;;;;;;5012781;28;20310;-80
2022/11/10 02:11:35;;;;;;;9.00;5.17;;;;;;;;;;5012992;28;20241;-80
2022/11/10 02:14:02;;;;;;;9.07;4.63;;;;;;;;;;5025097;28;20239;-80
2022/11/10 02:16:30;;;;;;;15.17;6.20;;;;;;;;;;5013003;28;20624;-80
2022/11/10 02:18:58;;;;;;;13.80;6.80;;;;;;;;;;5021601;28;20775;-80
2022/11/10 02:21:27;;;;;;;12.20;5.63;;;;;;;;;;5023905;28;20284;-80
2022/11/10 02:23:54;;;;;;;10.13;5.90;;;;;;;;;;5019291;28;20299;-80
2022/11/10 02:26:23;;;;;;;14.93;5.73;;;;;;;;;;5029022;28;20288;-80
2022/11/10 02:28:50;;;;;;;7.90;5.57;;;;;;;;;;5012334;28;20260;-80
2022/11/10 02:31:18;;;;;;;9.43;5.43;;;;;;;;;;5012051;28;20736;-80
2022/11/10 02:33:45;;;;;;;10.43;5.70;;;;;;;;;;5014245;28;20433;-81
2022/11/10 02:36:12;;;;;;;11.10;5.63;;;;;;;;;;5014045;28;20284;-80
2022/11/10 02:38:41;;;;;;;8.27;5.40;;;;;;;;;;5012734;28;20230;-80
2022/11/10 02:41:09;;;;;;;9.30;5.10;;;;;;;;;;5015782;28;20229;-80
2022/11/10 02:43:37;;;;;;;7.53;5.57;;;;;;;;;;5020380;28;20200;-80
2022/11/10 02:46:04;;;;;;;9.70;5.40;;;;;;;;;;5032120;28;20672;-80
2022/11/10 02:48:31;;;;;;;10.93;4.73;;;;;;;;;;5027718;28;20307;-80
2022/11/10 02:50:58;;;;;;;8.20;4.60;;;;;;;;;;5012351;28;20717;-80
2022/11/10 02:53:25;;;;;;;8.53;5.03;;;;;;;;;;5020401;28;20254;-80
2022/11/10 02:55:54;;;;;;;11.50;5.23;;;;;;;;;;5031601;28;20204;-80
2022/11/10 02:58:21;;;;;;;15.77;5.47;;;;;;;;;;5025192;28;20279;-80
2022/11/10 03:00:48;;;;;;;13.10;5.80;;;;;;;;;;5024581;28;20229;-80
2022/11/10 03:03:16;;;;;;;14.37;6.20;;;;;;;;;;5026416;28;20716;-80
2022/11/10 03:05:43;;;;;;;15.90;6.20;;;;;;;;;;5029701;28;20254;-80
2022/11/10 03:08:10;;;;;;;14.43;6.70;;;;;;;;;;5024553;28;20255;-80
2022/11/10 03:10:37;;;;;;;11.13;5.90;;;;;;;;;;5031037;28;20283;-80
2022/11/10 03:13:06;;;;;;;19.83;6.60;;;;;;;;;;5023678;28;20284;-79
2022/11/10 03:15:33;;;;;;;9.73;5.63;;;;;;;;;;5015238;28;20276;-80
2022/11/10 03:18:03;;;;;;;12.70;5.93;;;;;;;;;;5024279;28;20328;-80
2022/11/10 03:20:30;;;;;;;14.57;6.00;;;;;;;;;;5020605;28;20232;-80
2022/11/10 03:23:01;;;;;;;12.43;6.37;;;;;;;;;;5031201;28;20228;-81
2022/11/10 03:25:28;;;;;;;14.40;6.50;;;;;;;;;;5031828;28;20301;-80
2022/11/10 03:27:55;;;;;;;18.70;6.73;;;;;;;;;;5019034;28;20338;-80
2022/11/10 03:30:23;;;;;;;16.73;6.40;;;;;;;;;;5019693;28;20321;-81
2022/11/10 03:32:51;;;;;;;16.73;7.03;;;;;;;;;;5015961;28;20288;-80
2022/11/10 03:35:18;;;;;;;15.03;6.67;;;;;;;;;;5032326;28;20284;-80
2022/11/10 03:37:45;;;;;;;9.43;6.37;;;;;;;;;;5026675;28;20897;-79
2022/11/10 03:40:12;;;;;;;11.10;6.27;;;;;;;;;;5018013;28;21225;-80
2022/11/10 03:42:42;;;;;;;15.10;6.67;;;;;;;;;;5028534;28;20273;-80
2022/11/10 03:45:10;;;;;;;15.63;6.53;;;;;;;;;;5030744;28;20296;-80
2022/11/10 03:47:38;;;;;;;11.03;6.17;;;;;;;;;;5021916;28;20677;-80
2022/11/10 03:50:06;;;;;;;11.63;5.50;;;;;;;;;;5028532;28;20295;-80
2022/11/10 03:52:33;;;;;;;12.43;5.67;;;;;;;;;;5021136;28;20229;-80
2022/11/10 03:55:00;;;;;;;8.87;5.70;;;;;;;;;;5022463;28;20199;-80
2022/11/10 03:57:27;;;;;;;8.73;5.50;;;;;;;;;;5029463;28;20210;-80
2022/11/10 03:59:55;;;;;;;9.23;5.47;;;;;;;;;;5021901;28;20284;-80
2022/11/10 04:02:22;;;;;;;10.17;5.40;;;;;;;;;;5032066;28;20604;-80
2022/11/10 04:10:20;;;;;;;11.77;6.27;;;;;;;;;;5031334;28;20219;-80
2022/11/10 04:15:43;;;;;;;11.30;5.97;;;;;;;;;;5027272;28;20204;-79
2022/11/10 04:18:28;;;;;;;13.43;6.10;;;;;;;;;;5031982;28;20596;-80
2022/11/10 04:20:58;;;;;;;11.20;6.20;;;;;;;;;;5026239;28;20232;-80
2022/11/10 04:23:33;;;;;;;11.37;5.67;;;;;;;;;;5026796;28;20251;-80
2022/11/10 04:28:46;;;;;;;14.87;6.33;;;;;;;;;;5009507;28;20299;-81
2022/11/10 04:31:14;;;;;;;13.37;6.50;;;;;;;;;;5026294;28;20239;-80
2022/11/10 04:33:42;;;;;;;13.40;5.73;;;;;;;;;;5020322;28;20285;-80
2022/11/10 04:36:12;;;;;;;12.73;6.73;;;;;;;;;;5024296;28;20292;-79
2022/11/10 04:38:39;;;;;;;14.57;7.37;;;;;;;;;;5029880;28;20230;-80
2022/11/10 04:41:06;;;;;;;22.43;7.43;;;;;;;;;;5032577;28;20289;-80
2022/11/10 04:43:34;;;;;;;12.47;7.27;;;;;;;;;;5023511;28;20717;-80
2022/11/10 04:46:01;;;;;;;13.00;6.90;;;;;;;;;;5026260;28;20296;-79
2022/11/10 04:48:29;;;;;;;15.77;7.47;;;;;;;;;;5014639;28;20303;-81
2022/11/10 04:50:56;;;;;;;13.33;7.33;;;;;;;;;;5013595;28;20296;-80
2022/11/10 04:53:25;;;;;;;14.53;7.60;;;;;;;;;;5027674;28;20255;-80
2022/11/10 04:55:52;;;;;;;11.93;7.10;;;;;;;;;;5023497;28;20595;-80
2022/11/10 04:58:19;;;;;;;10.57;6.43;;;;;;;;;;5014530;28;20234;-79
2022/11/10 05:00:46;;;;;;;11.83;5.90;;;;;;;;;;5025020;28;20295;-80
2022/11/10 05:03:14;;;;;;;12.87;7.10;;;;;;;;;;5021838;28;20343;-80
2022/11/10 05:05:41;;;;;;;11.17;6.80;;;;;;;;;;5020077;28;20224;-80
2022/11/10 05:08:09;;;;;;;12.97;6.77;;;;;;;;;;5032847;28;20200;-80
2022/11/10 05:10:38;;;;;;;12.67;7.33;;;;;;;;;;5024414;28;20282;-80
2022/11/10 05:13:05;;;;;;;15.43;7.67;;;;;;;;;;5016463;28;20346;-80
2022/11/10 05:15:33;;;;;;;15.50;8.23;;;;;;;;;;5024826;28;20245;-80
2022/11/10 05:18:00;;;;;;;15.10;8.30;;;;;;;;;;5030249;28;20228;-80
2022/11/10 05:20:28;;;;;;;14.83;8.13;;;;;;;;;;5030340;28;20287;-79
2022/11/10 05:25:43;;;;;;;17.83;8.07;;;;;;;;;;5027182;28;20194;-80
2022/11/10 05:28:12;;;;;;;19.70;8.90;;;;;;;;;;5022692;28;20200;-80
2022/11/10 05:30:39;;;;;;;15.20;8.20;;;;;;;;;;5014099;28;20363;-80
2022/11/10 05:33:06;;;;;;;14.57;8.07;;;;;;;;;;5018501;28;20732;-80
2022/11/10 05:35:34;;;;;;;14.43;7.80;;;;;;;;;;5003738;28;20211;-81
2022/11/10 05:38:01;;;;;;;18.73;8.57;;;;;;;;;;5020096;28;20205;-80
2022/11/10 05:40:29;;;;;;;18.80;8.27;;;;;;;;;;5018241;28;20280;-80
2022/11/10 05:42:57;;;;;;;15.87;8.67;;;;;;;;;;5015244;28;21086;-80
2022/11/10 05:45:25;;;;;;;18.40;8.43;;;;;;;;;;5024037;28;20231;-80
2022/11/10 05:47:54;;;;;;;18.47;9.00;;;;;;;;;;5015100;28;20197;-80
2022/11/10 05:50:22;;;;;;;16.53;8.23;;;;;;;;;;5013809;28;20310;-80
2022/11/10 05:52:51;;;;;;;15.40;7.57;;;;;;;;;;5012274;28;20738;-80
2022/11/10 05:55:18;;;;;;;13.17;7.53;;;;;;;;;;5013713;28;20232;-80
2022/11/10 05:57:46;;;;;;;16.77;7.83;;;;;;;;;;5013666;28;20280;-80
2022/11/10 06:00:16;;;;;;;15.57;8.93;;;;;;;;;;5020843;28;20728;-85
2022/11/10 06:02:43;;;;;;;17.27;8.63;;;;;;;;;;5031354;28;20196;-86
2022/11/10 06:05:11;;;;;;;12.73;7.77;;;;;;;;;;5017489;28;20291;-84
2022/11/10 06:07:39;;;;;;;15.20;9.03;;;;;;;;;;5019066;28;20202;-84
2022/11/10 06:10:07;;;;;;;18.60;9.73;;;;;;;;;;5023293;28;20310;-85
2022/11/10 06:12:34;;;;;;;18.20;9.73;;;;;;;;;;5032332;28;20232;-84
2022/11/10 06:15:01;;;;;;;23.10;10.50;;;;;;;;;;5025585;28;20233;-85
2022/11/10 06:17:30;;;;;;;18.77;9.97;;;;;;;;;;5023822;28;20204;-85
2022/11/10 06:19:57;;;;;;;21.80;10.07;;;;;;;;;;5032458;28;20287;-84
2022/11/10 06:22:24;;;;;;;19.17;9.63;;;;;;;;;;5021176;28;20297;-86
2022/11/10 06:24:51;;;;;;;18.83;9.77;;;;;;;;;;5012940;28;20643;-84
2022/11/10 06:27:18;;;;;;;17.10;9.27;;;;;;;;;;5016698;28;20220;-84
2022/11/10 06:29:46;;;;;;;17.60;9.30;;;;;;;;;;5027468;28;20310;-84
2022/11/10 06:32:13;;;;;;;16.30;9.00;;;;;;;;;;5021734;28;20649;-83
2022/11/10 06:34:42;;;;;;;17.30;9.37;;;;;;;;;;5012527;28;20232;-84
2022/11/10 06:37:09;;;;;;;17.70;9.37;;;;;;;;;;5012578;28;20240;-83
2022/11/10 06:39:37;;;;;;;18.13;8.63;;;;;;;;;;5025074;28;20280;-84
2022/11/10 06:42:04;;;;;;;16.90;9.30;;;;;;;;;;5032634;28;20221;-82
2022/11/10 06:44:31;;;;;;;14.33;8.60;;;;;;;;;;5023484;28;20392;-83
2022/11/10 06:46:58;;;;;;;13.93;8.63;;;;;;;;;;4973351;28;20324;-83
2022/11/10 06:49:26;;;;;;;12.33;7.97;;;;;;;;;;5005756;28;20254;-84
2022/11/10 06:51:54;;;;;;;14.70;8.43;;;;;;;;;;5009164;28;20244;-84
2022/11/10 06:54:21;;;;;;;15.23;8.17;;;;;;;;;;4998252;28;20295;-81
2022/11/10 06:56:49;;;;;;;15.37;8.20;;;;;;;;;;5003953;28;20253;-81
2022/11/10 06:59:16;;;;;;;13.07;8.23;;;;;;;;;;5005625;28;20301;-81
2022/11/10 07:01:43;;;;;;;14.03;8.20;;;;;;;;;;5011162;28;20239;-81
2022/11/10 07:04:10;;;;;;;18.23;8.97;;;;;;;;;;5016281;28;20283;-82
2022/11/10 07:06:37;;;;;;;14.93;8.70;;;;;;;;;;5031403;28;20653;-82
2022/11/10 07:09:06;;;;;;;13.10;9.00;;;;;;;;;;5024425;28;20328;-81
2022/11/10 07:11:33;;;;;;;17.70;9.00;;;;;;;;;;5015890;28;20288;-81
2022/11/10 07:14:00;;;;;;;15.73;9.80;;;;;;;;;;5016185;28;20211;-81
2022/11/10 07:16:27;;;;;;;24.20;12.10;;;;;;;;;;5016048;28;20243;-81
2022/11/10 07:18:54;;;;;;;15.20;9.40;;;;;;;;;;5022291;28;20295;-81
2022/11/10 07:21:22;;;;;;;18.17;9.40;;;;;;;;;;5023749;28;20294;-81
2022/11/10 07:23:49;;;;;;;16.23;8.50;;;;;;;;;;5015646;28;20292;-81
2022/11/10 07:26:17;;;;;;;14.83;8.60;;;;;;;;;;5028852;28;20756;-81
2022/11/10 07:28:45;;;;;;;13.10;9.37;;;;;;;;;;5023465;28;20660;-81
2022/11/10 07:31:12;;;;;;;16.60;8.93;;;;;;;;;;5032429;28;20669;-81
2022/11/10 07:33:39;;;;;;;16.27;9.03;;;;;;;;;;5035928;28;20234;-82
2022/11/10 07:36:07;;;;;;;15.50;9.27;;;;;;;;;;5021219;28;20666;-81
2022/11/10 07:38:34;;;;;;;16.40;9.70;;;;;;;;;;5015905;28;20880;-81
2022/11/10 07:41:01;;;;;;;14.47;8.93;;;;;;;;;;5029309;28;20224;-81
2022/11/10 07:43:30;;;;;;;13.30;9.20;;;;;;;;;;5035255;28;20234;-80
2022/11/10 07:45:57;;;;;;;18.47;9.80;;;;;;;;;;5035571;28;20240;-81
2022/11/10 07:48:24;;;;;;;14.83;9.13;;;;;;;;;;4999979;28;20296;-81
2022/11/10 07:50:52;;;;;;;11.47;8.20;;;;;;;;;;5014911;28;20257;-81
2022/11/10 07:53:20;;;;;;;11.83;7.97;;;;;;;;;;5011164;28;20583;-81
2022/11/10 07:55:47;;;;;;;11.03;7.43;;;;;;;;;;5010769;28;20660;-83
2022/11/10 07:58:15;;;;;;;8.80;6.30;;;;;;;;;;5011030;28;20292;-81
2022/11/10 08:00:44;;;;;;;10.53;5.87;;;;;;;;;;5016246;28;20264;-83
2022/11/10 08:03:12;;;;;;;8.93;4.73;;;;;;;;;;5016439;28;20240;-83
2022/11/10 08:05:40;;;;;;;7.57;4.10;;;;;;;;;;5011978;28;20236;-82
2022/11/10 08:08:07;;;;;;;6.90;3.73;;;;;;;;;;5014400;28;20232;-83
2022/11/10 08:10:35;;;;;;;6.33;3.40;;;;;;;;;;5013007;28;20216;-83
2022/11/10 08:13:03;;;;;;;7.73;3.30;;;;;;;;;;5011986;28;20215;-82
2022/11/10 08:15:31;;;;;;;7.72;3.35;;;;;;;;;;5014240;28;20739;-83
2022/11/10 08:18:14;;;;;;;5.10;3.10;;;;;;;;;;4994143;28;20288;-83
2022/11/10 08:20:41;;;;;;;5.57;2.80;;;;;;;;;;5016406;28;20236;-83
2022/11/10 08:23:09;;;;;;;7.25;3.20;;;;;;;;;;5014560;28;20205;-83
2022/11/10 08:25:37;;;;;;;6.95;3.38;;;;;;;;;;5017823;28;20209;-83
2022/11/10 08:28:05;;;;;;;4.72;2.90;;;;;;;;;;5015916;28;21778;-82
2022/11/10 08:30:33;;;;;;;8.02;3.30;;;;;;;;;;5011843;28;20236;-83
2022/11/10 08:33:01;;;;;;;5.63;2.70;;;;;;;;;;5011465;28;20208;-83
2022/11/10 08:35:31;;;;;;;6.82;2.88;;;;;;;;;;5012050;28;20208;-83
2022/11/10 08:37:58;;;;;;;7.22;2.95;;;;;;;;;;5012797;28;20290;-83
2022/11/10 08:40:27;;;;;;;8.77;3.10;;;;;;;;;;5014049;28;20242;-83
2022/11/10 08:42:59;;;;;;;5.35;3.03;;;;;;;;;;5014359;28;20659;-82
2022/11/10 08:45:27;;;;;;;5.72;3.15;;;;;;;;;;5013970;28;20200;-83
2022/11/10 08:47:58;;;;;;;7.53;3.00;;;;;;;;;;5012794;28;20296;-82
2022/11/10 08:50:26;;;;;;;4.85;2.95;;;;;;;;;;5017310;28;20224;-83
2022/11/10 08:52:55;;;;;;;6.22;2.80;;;;;;;;;;5012574;28;20283;-83
2022/11/10 08:55:22;;;;;;;6.10;2.97;;;;;;;;;;5014723;28;20196;-81
2022/11/10 08:57:49;;;;;;;6.05;3.22;;;;;;;;;;5011747;28;20225;-83
2022/11/10 09:00:17;;;;;;;8.27;3.15;;;;;;;;;;5010942;28;20288;-83
2022/11/10 09:02:45;;;;;;;7.20;3.20;;;;;;;;;;5018159;28;20292;-83
2022/11/10 09:05:12;;;;;;;5.82;3.25;;;;;;;;;;5012298;28;20284;-83
2022/11/10 09:07:46;;;;;;;6.25;3.13;;;;;;;;;;5016025;28;20225;-83
2022/11/10 09:10:15;;;;;;;5.10;3.05;;;;;;;;;;5007638;28;20217;-83
2022/11/10 09:12:42;;;;;;;6.15;2.97;;;;;;;;;;5013685;28;20296;-84
2022/11/10 09:15:10;;;;;;;6.60;3.58;;;;;;;;;;5010682;28;20201;-84
2022/11/10 09:17:38;;;;;;;4.43;2.92;;;;;;;;;;5014884;28;20283;-83
2022/11/10 09:20:12;;;;;;;5.80;2.92;;;;;;;;;;5011639;28;20470;-83
2022/11/10 09:22:40;;;;;;;7.82;3.28;;;;;;;;;;5012307;28;20205;-83
2022/11/10 09:25:07;;;;;;;5.47;3.05;;;;;;;;;;5011498;28;20213;-83
2022/11/10 09:27:37;;;;;;;7.13;3.28;;;;;;;;;;5015672;28;20291;-83
2022/11/10 09:30:05;;;;;;;10.27;3.53;;;;;;;;;;5012632;28;20336;-84
2022/11/10 09:32:32;;;;;;;5.18;3.20;;;;;;;;;;5010701;28;20292;-83
2022/11/10 09:34:59;;;;;;;6.80;3.55;;;;;;;;;;5010729;28;20236;-82
2022/11/10 09:37:27;;;;;;;7.78;4.00;;;;;;;;;;5011828;28;20201;-82
2022/11/10 09:39:54;;;;;;;7.20;3.38;;;;;;;;;;5011963;28;20299;-83
2022/11/10 09:42:26;;;;;;;5.50;3.30;;;;;;;;;;5010387;28;20239;-83
2022/11/10 09:44:59;;;;;;;6.40;4.05;;;;;;;;;;5010536;28;20582;-83
2022/11/10 09:47:28;;;;;;;6.68;3.55;;;;;;;;;;5009652;28;20289;-81
2022/11/10 09:49:59;;;;;;;10.35;3.55;;;;;;;;;;5010310;28;20308;-80
2022/11/10 09:52:28;;;;;;;7.82;3.72;;;;;;;;;;5009210;28;20201;-81
2022/11/10 09:54:58;;;;;;;9.20;3.50;;;;;;;;;;5010957;28;20288;-82
2022/11/10 09:57:26;;;;;;;6.28;3.28;;;;;;;;;;5012576;28;20289;-81
2022/11/10 09:59:53;;;;;;;7.25;3.40;;;;;;;;;;5011714;28;20236;-83
2022/11/10 10:02:25;;;;;;;7.07;3.40;;;;;;;;;;5009546;28;20280;-83
2022/11/10 10:05:03;;;;;;;6.72;3.47;;;;;;;;;;5010748;28;20580;-83
2022/11/10 10:07:40;;;;;;;6.97;3.60;;;;;;;;;;5013424;28;20204;-83
2022/11/10 10:10:12;;;;;;;6.60;3.05;;;;;;;;;;5009341;28;20247;-83
2022/11/10 10:12:54;;;;;;;7.32;2.95;;;;;;;;;;5010617;28;20727;-83
2022/11/10 10:15:24;;;;;;;6.18;2.45;;;;;;;;;;5008646;28;20227;-83
2022/11/10 10:17:58;;;;;;;7.25;2.60;;;;;;;;;;5009404;28;20296;-84
2022/11/10 10:20:28;;;;;;;7.88;2.67;;;;;;;;;;5011513;28;20288;-83
2022/11/10 10:23:04;;;;;;;5.07;2.55;;;;;;;;;;5006989;28;20296;-83
2022/11/10 10:25:32;;;;;;;5.97;2.80;;;;;;;;;;5011651;28;20215;-83
2022/11/10 10:28:02;;;;;;;4.38;2.63;;;;;;;;;;5009856;28;20295;-83
2022/11/10 10:30:29;;;;;;;8.80;3.22;;;;;;;;;;5010750;28;20320;-82
2022/11/10 10:33:00;;;;;;;5.30;2.75;;;;;;;;;;5010360;28;20284;-82
2022/11/10 10:35:30;;;;;;;7.07;3.00;;;;;;;;;;5008934;28;20286;-82
2022/11/10 10:37:58;;;;;;;7.55;3.03;;;;;;;;;;5011140;28;20233;-82
2022/11/10 10:40:25;;;;;;;8.50;3.08;;;;;;;;;;5014943;28;20284;-82
2022/11/10 10:42:53;;;;;;;7.18;3.30;;;;;;;;;;5011918;28;20297;-83
2022/11/10 10:45:21;;;;;;;6.68;2.90;;;;;;;;;;5008740;28;20209;-83
2022/11/10 10:47:51;;;;;;;10.07;3.05;;;;;;;;;;5009396;28;20682;-83
2022/11/10 10:50:37;;;;;;;7.22;3.10;;;;;;;;;;5011151;28;20739;-83
2022/11/10 10:53:16;;;;;;;6.88;2.85;;;;;;;;;;5012340;28;20212;-83
2022/11/10 10:55:47;;;;;;;8.68;3.47;;;;;;;;;;5015834;28;20283;-82
2022/11/10 10:58:26;;;;;;;6.28;2.70;;;;;;;;;;5014223;28;20233;-83
2022/11/10 11:00:54;;;;;;;8.10;2.72;;;;;;;;;;5009241;28;20258;-82
2022/11/10 11:03:28;;;;;;;8.00;2.60;;;;;;;;;;5011511;28;20239;-82
2022/11/10 11:06:04;;;;;;;6.63;2.60;;;;;;;;;;5014486;28;20197;-82
2022/11/10 11:08:33;;;;;;;7.03;2.40;;;;;;;;;;5009056;28;20291;-82
2022/11/10 11:11:07;;;;;;;7.32;2.20;;;;;;;;;;5010050;28;20319;-83
2022/11/10 11:13:34;;;;;;;6.45;2.00;;;;;;;;;;5012185;28;20327;-82
2022/11/10 11:16:02;;;;;;;12.23;2.67;;;;;;;;;;5010624;28;20284;-82
2022/11/10 11:18:31;;;;;;;7.43;2.63;;;;;;;;;;5011961;28;20233;-82
2022/11/10 11:21:02;;;;;;;11.30;2.65;;;;;;;;;;5012321;28;20752;-83
2022/11/10 11:23:42;;;;;;;6.47;2.28;;;;;;;;;;5009381;28;20205;-83
2022/11/10 11:26:10;;;;;;;7.05;1.67;;;;;;;;;;5009202;28;20760;-84
2022/11/10 11:28:41;;;;;;;7.80;1.67;;;;;;;;;;5017472;28;20237;-83
2022/11/10 11:31:12;;;;;;;5.35;1.85;;;;;;;;;;5014432;28;20333;-83
2022/11/10 11:33:41;;;;;;;7.47;1.88;;;;;;;;;;5018746;28;20664;-83
2022/11/10 11:36:13;;;;;;;4.60;1.50;;;;;;;;;;5008796;28;20876;-82
2022/11/10 11:38:48;;;;;;;7.93;1.63;;;;;;;;;;5011382;28;20244;-83
2022/11/10 11:41:20;;;;;;;8.13;1.85;;;;;;;;;;5013567;28;20206;-83
2022/11/10 11:43:56;;;;;;;6.70;1.50;;;;;;;;;;5010626;28;20713;-83
2022/11/10 11:46:28;;;;;;;6.32;1.40;;;;;;;;;;5011724;28;20335;-83
2022/11/10 11:49:00;;;;;;;4.90;1.30;;;;;;;;;;5009289;28;20232;-83
2022/11/10 11:51:29;;;;;;;5.35;1.23;;;;;;;;;;5012266;28;20309;-83
2022/11/10 11:54:11;;;;;;;6.88;1.30;;;;;;;;;;5015254;28;20280;-83
2022/11/10 11:56:41;;;;;;;6.95;1.35;;;;;;;;;;5010095;28;20347;-83
2022/11/10 11:59:14;;;;;;;4.55;1.38;;;;;;;;;;5013275;28;20328;-83
2022/11/10 12:01:51;;;;;;;6.18;1.45;;;;;;;;;;5014695;28;20279;-82
2022/11/10 12:04:43;;;;;;;6.53;1.20;;;;;;;;;;5009061;28;20200;-82
2022/11/10 12:07:21;;;;;;;6.93;1.33;;;;;;;;;;5014379;28;20208;-83
2022/11/10 12:09:50;;;;;;;7.47;1.83;;;;;;;;;;5009252;28;20291;-84
2022/11/10 12:12:28;;;;;;;3.75;1.50;;;;;;;;;;5013093;28;20863;-83
2022/11/10 12:14:59;;;;;;;5.43;1.40;;;;;;;;;;5016949;28;20192;-83
2022/11/10 12:17:33;;;;;;;7.68;1.63;;;;;;;;;;5011173;28;20292;-83
2022/11/10 12:20:04;;;;;;;3.60;1.20;;;;;;;;;;5012481;28;20204;-84
2022/11/10 12:22:36;;;;;;;6.68;1.60;;;;;;;;;;5014490;28;20277;-84
2022/11/10 12:25:10;;;;;;;5.55;1.42;;;;;;;;;;5012675;28;20291;-84
2022/11/10 12:27:41;;;;;;;4.03;1.00;;;;;;;;;;5011729;28;20334;-84
2022/11/10 12:30:11;;;;;;;7.15;1.23;;;;;;;;;;5013787;28;20327;-84
2022/11/10 12:32:41;;;;;;;6.72;1.40;;;;;;;;;;5014601;28;20300;-84
2022/11/10 12:35:13;;;;;;;4.65;1.33;;;;;;;;;;5013562;28;20209;-84
2022/11/10 12:37:42;;;;;;;6.68;1.30;;;;;;;;;;5012246;28;20211;-83
2022/11/10 12:40:15;;;;;;;5.07;1.40;;;;;;;;;;5012084;28;20235;-85
2022/11/10 12:42:44;;;;;;;4.22;1.40;;;;;;;;;;5013714;28;20216;-85
2022/11/10 12:45:18;;;;;;;3.88;1.20;;;;;;;;;;5012417;28;20288;-85
2022/11/10 12:47:46;;;;;;;6.10;1.38;;;;;;;;;;5013651;28;20224;-84
2022/11/10 12:50:22;;;;;;;5.72;1.30;;;;;;;;;;5012843;28;20193;-84
2022/11/10 12:52:52;;;;;;;9.27;1.55;;;;;;;;;;5013087;28;20290;-84
2022/11/10 12:55:21;;;;;;;6.00;1.35;;;;;;;;;;5014739;28;21720;-84
2022/11/10 12:57:49;;;;;;;3.55;1.27;;;;;;;;;;5008749;28;20232;-84
2022/11/10 13:00:24;;;;;;;5.22;1.10;;;;;;;;;;5014934;28;20340;-84
2022/11/10 13:02:54;;;;;;;7.13;1.33;;;;;;;;;;5014736;28;20211;-84
2022/11/10 13:05:29;;;;;;;3.80;1.20;;;;;;;;;;5012219;28;20197;-84
2022/11/10 13:08:12;;;;;;;5.85;1.65;;;;;;;;;;5011853;28;20280;-83
2022/11/10 13:10:47;;;;;;;5.78;1.67;;;;;;;;;;5011295;28;20215;-84
2022/11/10 13:13:16;;;;;;;4.70;1.40;;;;;;;;;;5014003;28;20254;-85
2022/11/10 13:15:50;;;;;;;4.60;1.50;;;;;;;;;;5011767;28;20229;-84
2022/11/10 13:18:27;;;;;;;5.57;1.58;;;;;;;;;;5006413;28;20287;-82
2022/11/10 13:20:55;;;;;;;8.25;1.80;;;;;;;;;;5012664;28;20795;-83
2022/11/10 13:23:27;;;;;;;7.15;1.63;;;;;;;;;;5011190;28;20204;-83
2022/11/10 13:25:55;;;;;;;5.43;1.45;;;;;;;;;;5014605;28;20296;-84
2022/11/10 13:28:41;;;;;;;8.52;1.50;;;;;;;;;;5014914;28;20283;-77
2022/11/10 13:31:23;;;;;;;6.70;1.60;;;;;;;;;;5014702;28;20260;-77
2022/11/10 13:34:06;;;;;;;7.68;1.65;;;;;;;;;;5011549;28;20280;-76
2022/11/10 13:36:40;;;;;;;9.20;1.52;;;;;;;;;;5010274;28;20657;-77
2022/11/10 13:39:22;;;;;;;3.85;1.45;;;;;;;;;;5014501;28;20204;-76
2022/11/10 13:41:51;;;;;;;5.90;1.30;;;;;;;;;;5011955;28;20570;-76
2022/11/10 13:44:22;;;;;;;5.63;1.50;;;;;;;;;;5011278;28;20292;-77
2022/11/10 13:46:57;;;;;;;3.08;1.40;;;;;;;;;;5013207;28;20547;-77
2022/11/10 13:49:28;;;;;;;8.60;1.67;;;;;;;;;;5010282;28;20711;-77
2022/11/10 13:52:05;;;;;;;4.38;1.33;;;;;;;;;;5011192;28;20313;-76
2022/11/10 13:54:45;;;;;;;3.13;1.40;;;;;;;;;;5011749;28;20223;-77
2022/11/10 13:57:25;;;;;;;5.68;1.48;;;;;;;;;;5011153;28;20715;-77
2022/11/10 13:59:54;;;;;;;7.20;1.88;;;;;;;;;;5010390;28;20299;-77
2022/11/10 14:02:40;;;;;;;6.72;1.45;;;;;;;;;;5012879;28;20236;-77
2022/11/10 14:05:09;;;;;;;3.72;1.20;;;;;;;;;;5014581;28;20299;-76
2022/11/10 14:07:38;;;;;;;5.93;1.45;;;;;;;;;;5009689;28;20781;-77
2022/11/10 14:10:08;;;;;;;4.65;1.33;;;;;;;;;;5012027;28;20244;-76
2022/11/10 14:12:38;;;;;;;9.48;1.65;;;;;;;;;;5009545;28;20737;-77
2022/11/10 14:15:07;;;;;;;7.70;1.63;;;;;;;;;;5014062;28;20211;-77
2022/11/10 14:17:36;;;;;;;5.05;1.65;;;;;;;;;;5009452;28;20380;-77
2022/11/10 14:20:03;;;;;;;5.25;1.35;;;;;;;;;;4992566;28;20292;-77
2022/11/10 14:22:34;;;;;;;6.28;1.67;;;;;;;;;;5010724;28;20194;-77
2022/11/10 14:25:03;;;;;;;4.15;1.38;;;;;;;;;;5009735;28;20292;-77
2022/11/10 14:27:32;;;;;;;6.40;1.30;;;;;;;;;;5009340;28;20275;-76
2022/11/10 14:30:08;;;;;;;4.43;1.33;;;;;;;;;;5010009;28;20240;-77
2022/11/10 14:32:37;;;;;;;5.97;1.67;;;;;;;;;;5009133;28;20310;-76
2022/11/10 14:35:04;;;;;;;5.90;1.63;;;;;;;;;;5012379;28;20231;-77
2022/11/10 14:37:33;;;;;;;7.70;1.52;;;;;;;;;;5011618;28;20310;-76
2022/11/10 14:40:02;;;;;;;6.38;1.27;;;;;;;;;;5012992;28;20200;-76
2022/11/10 14:42:31;;;;;;;7.15;1.88;;;;;;;;;;5006361;28;20209;-76
2022/11/10 14:45:12;;;;;;;5.65;1.60;;;;;;;;;;5008034;28;20283;-76
2022/11/10 14:47:39;;;;;;;5.18;1.50;;;;;;;;;;5011658;28;21969;-78
2022/11/10 14:50:07;;;;;;;3.33;1.38;;;;;;;;;;5009947;28;20676;-77
2022/11/10 14:52:40;;;;;;;5.80;1.50;;;;;;;;;;5009888;28;20315;-76
2022/11/10 14:55:09;;;;;;;6.40;1.83;;;;;;;;;;5008907;28;20239;-77
2022/11/10 14:57:36;;;;;;;5.93;2.13;;;;;;;;;;5009224;28;20212;-77
2022/11/10 15:00:06;;;;;;;8.30;1.90;;;;;;;;;;5009228;28;20332;-77
2022/11/10 15:02:34;;;;;;;9.10;2.22;;;;;;;;;;5009890;28;20292;-78
2022/11/10 15:05:02;;;;;;;6.47;2.30;;;;;;;;;;5008539;28;20740;-78